Ashley, Pennsylvania
Current Conditions -  °F | °C
As of 12:54 PM on Wednesday 28 Jan 2015 (Local Time) from KAVP Reporting Station
Unknown Precip Unknown Precip  
Wind Chill: 13°   Ceiling: Unl
Heat Index: 25°   Visibility: 10mi
Dew Point:   Wind: 15mph
Humidity: 43%   Direction: 330°NNW
Pressure: 30.12"   Gusts: 20mph
Location:  41.1921°N, 75.9213°W
Report Text: KAVP 281754Z 33013G17KT 10SM UP CLR M04/M15 A3012 RMK AO2 SLP213 P0000 60000 T10391150 11039 21117 58004
Loading
Personal Weather Stations






























Interactive Weather Map New forecast layout! Learn more

10-Day Weather Forecast

Advertisements
Track Severe Weather on mobile